sensor_id;sensor_type;location;lat;lon;timestamp;P1;durP1;ratioP1;P2;durP2;ratioP2
56457;SDS011;42360;42.918;12.366;2023-12-20T00:01:15;21.98;;;14.95;;
56457;SDS011;42360;42.918;12.366;2023-12-20T00:03:41;23.38;;;13.60;;
56457;SDS011;42360;42.918;12.366;2023-12-20T00:06:06;17.58;;;13.23;;
56457;SDS011;42360;42.918;12.366;2023-12-20T00:08:32;20.55;;;13.55;;
56457;SDS011;42360;42.918;12.366;2023-12-20T00:10:57;22.33;;;13.48;;
56457;SDS011;42360;42.918;12.366;2023-12-20T00:13:23;15.52;;;12.05;;
56457;SDS011;42360;42.918;12.366;2023-12-20T00:15:48;16.60;;;12.98;;
56457;SDS011;42360;42.918;12.366;2023-12-20T00:18:14;17.67;;;13.00;;
56457;SDS011;42360;42.918;12.366;2023-12-20T00:20:39;17.73;;;13.70;;
56457;SDS011;42360;42.918;12.366;2023-12-20T00:23:05;18.65;;;12.35;;
56457;SDS011;42360;42.918;12.366;2023-12-20T00:25:30;15.68;;;11.75;;
56457;SDS011;42360;42.918;12.366;2023-12-20T00:27:56;20.45;;;13.57;;
56457;SDS011;42360;42.918;12.366;2023-12-20T00:30:21;17.92;;;13.38;;
56457;SDS011;42360;42.918;12.366;2023-12-20T00:32:47;22.17;;;14.23;;
56457;SDS011;42360;42.918;12.366;2023-12-20T00:35:15;19.52;;;12.90;;
56457;SDS011;42360;42.918;12.366;2023-12-20T00:37:41;18.83;;;12.38;;
56457;SDS011;42360;42.918;12.366;2023-12-20T00:40:08;20.63;;;13.43;;
56457;SDS011;42360;42.918;12.366;2023-12-20T00:42:34;19.88;;;12.75;;
56457;SDS011;42360;42.918;12.366;2023-12-20T00:45:00;18.25;;;12.90;;
56457;SDS011;42360;42.918;12.366;2023-12-20T00:47:26;17.48;;;12.25;;
56457;SDS011;42360;42.918;12.366;2023-12-20T00:49:51;20.55;;;12.82;;
56457;SDS011;42360;42.918;12.366;2023-12-20T00:52:17;16.63;;;10.77;;
56457;SDS011;42360;42.918;12.366;2023-12-20T00:54:43;16.80;;;9.88;;
56457;SDS011;42360;42.918;12.366;2023-12-20T00:57:09;19.13;;;11.52;;
56457;SDS011;42360;42.918;12.366;2023-12-20T00:59:34;16.30;;;11.10;;
56457;SDS011;42360;42.918;12.366;2023-12-20T01:02:00;20.85;;;12.32;;
56457;SDS011;42360;42.918;12.366;2023-12-20T01:04:25;17.38;;;11.65;;
56457;SDS011;42360;42.918;12.366;2023-12-20T01:06:51;18.23;;;10.88;;
56457;SDS011;42360;42.918;12.366;2023-12-20T01:09:17;13.50;;;9.40;;
56457;SDS011;42360;42.918;12.366;2023-12-20T01:11:43;15.55;;;9.32;;
56457;SDS011;42360;42.918;12.366;2023-12-20T01:14:09;13.07;;;10.02;;
56457;SDS011;42360;42.918;12.366;2023-12-20T01:16:34;12.10;;;9.50;;
56457;SDS011;42360;42.918;12.366;2023-12-20T01:19:00;17.27;;;11.43;;
56457;SDS011;42360;42.918;12.366;2023-12-20T01:21:25;15.77;;;10.80;;
56457;SDS011;42360;42.918;12.366;2023-12-20T01:23:51;14.27;;;10.70;;
56457;SDS011;42360;42.918;12.366;2023-12-20T01:26:16;12.85;;;9.77;;
56457;SDS011;42360;42.918;12.366;2023-12-20T01:28:42;12.77;;;9.82;;
56457;SDS011;42360;42.918;12.366;2023-12-20T01:31:08;16.98;;;10.43;;
56457;SDS011;42360;42.918;12.366;2023-12-20T01:33:33;13.95;;;9.98;;
56457;SDS011;42360;42.918;12.366;2023-12-20T01:35:59;13.48;;;10.27;;
56457;SDS011;42360;42.918;12.366;2023-12-20T01:38:24;14.68;;;10.20;;
56457;SDS011;42360;42.918;12.366;2023-12-20T01:40:50;14.18;;;9.38;;
56457;SDS011;42360;42.918;12.366;2023-12-20T01:43:16;15.13;;;10.48;;
56457;SDS011;42360;42.918;12.366;2023-12-20T01:45:41;14.20;;;10.25;;
56457;SDS011;42360;42.918;12.366;2023-12-20T01:48:07;12.43;;;8.23;;
56457;SDS011;42360;42.918;12.366;2023-12-20T01:50:33;11.68;;;7.45;;
56457;SDS011;42360;42.918;12.366;2023-12-20T01:53:01;13.85;;;8.45;;
56457;SDS011;42360;42.918;12.366;2023-12-20T01:55:29;11.63;;;8.35;;
56457;SDS011;42360;42.918;12.366;2023-12-20T01:57:57;11.77;;;8.20;;
56457;SDS011;42360;42.918;12.366;2023-12-20T02:00:23;13.35;;;9.32;;
56457;SDS011;42360;42.918;12.366;2023-12-20T02:02:51;12.27;;;9.43;;
56457;SDS011;42360;42.918;12.366;2023-12-20T02:05:18;13.55;;;10.07;;
56457;SDS011;42360;42.918;12.366;2023-12-20T02:07:44;12.90;;;9.88;;
56457;SDS011;42360;42.918;12.366;2023-12-20T02:10:09;15.05;;;9.70;;
56457;SDS011;42360;42.918;12.366;2023-12-20T02:12:35;10.70;;;8.93;;
56457;SDS011;42360;42.918;12.366;2023-12-20T02:15:00;13.35;;;9.77;;
56457;SDS011;42360;42.918;12.366;2023-12-20T02:17:26;13.65;;;9.57;;
56457;SDS011;42360;42.918;12.366;2023-12-20T02:19:52;11.38;;;8.57;;
56457;SDS011;42360;42.918;12.366;2023-12-20T02:22:18;10.95;;;8.45;;
56457;SDS011;42360;42.918;12.366;2023-12-20T02:24:43;11.02;;;7.75;;
56457;SDS011;42360;42.918;12.366;2023-12-20T02:27:09;9.75;;;6.93;;
56457;SDS011;42360;42.918;12.366;2023-12-20T02:29:34;10.73;;;8.07;;
56457;SDS011;42360;42.918;12.366;2023-12-20T02:32:00;11.38;;;8.00;;
56457;SDS011;42360;42.918;12.366;2023-12-20T02:34:26;13.10;;;7.63;;
56457;SDS011;42360;42.918;12.366;2023-12-20T02:36:51;11.13;;;8.18;;
56457;SDS011;42360;42.918;12.366;2023-12-20T02:39:17;13.27;;;9.15;;
56457;SDS011;42360;42.918;12.366;2023-12-20T02:41:44;12.77;;;9.07;;
56457;SDS011;42360;42.918;12.366;2023-12-20T02:44:09;11.18;;;8.93;;
56457;SDS011;42360;42.918;12.366;2023-12-20T02:46:35;17.05;;;10.68;;
56457;SDS011;42360;42.918;12.366;2023-12-20T02:49:00;14.55;;;10.52;;
56457;SDS011;42360;42.918;12.366;2023-12-20T02:51:26;13.23;;;9.88;;
56457;SDS011;42360;42.918;12.366;2023-12-20T02:53:51;12.55;;;9.02;;
56457;SDS011;42360;42.918;12.366;2023-12-20T02:56:16;12.95;;;7.38;;
56457;SDS011;42360;42.918;12.366;2023-12-20T02:58:42;10.60;;;7.53;;
56457;SDS011;42360;42.918;12.366;2023-12-20T03:01:07;14.57;;;7.80;;
56457;SDS011;42360;42.918;12.366;2023-12-20T03:03:33;10.63;;;6.88;;
56457;SDS011;42360;42.918;12.366;2023-12-20T03:05:58;9.23;;;6.63;;
56457;SDS011;42360;42.918;12.366;2023-12-20T03:08:24;10.60;;;6.70;;
56457;SDS011;42360;42.918;12.366;2023-12-20T03:10:50;9.85;;;7.38;;
56457;SDS011;42360;42.918;12.366;2023-12-20T03:13:15;10.63;;;7.93;;
56457;SDS011;42360;42.918;12.366;2023-12-20T03:15:41;12.75;;;7.75;;
56457;SDS011;42360;42.918;12.366;2023-12-20T03:18:06;14.27;;;9.48;;
56457;SDS011;42360;42.918;12.366;2023-12-20T03:20:31;15.75;;;10.70;;
56457;SDS011;42360;42.918;12.366;2023-12-20T03:22:59;17.98;;;11.02;;
56457;SDS011;42360;42.918;12.366;2023-12-20T03:25:25;15.43;;;10.73;;
56457;SDS011;42360;42.918;12.366;2023-12-20T03:27:51;15.30;;;10.40;;
56457;SDS011;42360;42.918;12.366;2023-12-20T03:30:17;15.40;;;10.20;;
56457;SDS011;42360;42.918;12.366;2023-12-20T03:32:43;13.48;;;9.60;;
56457;SDS011;42360;42.918;12.366;2023-12-20T03:35:08;13.02;;;10.30;;
56457;SDS011;42360;42.918;12.366;2023-12-20T03:37:34;16.38;;;11.40;;
56457;SDS011;42360;42.918;12.366;2023-12-20T03:39:59;14.13;;;10.20;;
56457;SDS011;42360;42.918;12.366;2023-12-20T03:42:25;15.25;;;11.18;;
56457;SDS011;42360;42.918;12.366;2023-12-20T03:44:50;18.50;;;11.02;;
56457;SDS011;42360;42.918;12.366;2023-12-20T03:47:16;18.52;;;11.73;;
56457;SDS011;42360;42.918;12.366;2023-12-20T03:49:41;17.83;;;11.40;;
56457;SDS011;42360;42.918;12.366;2023-12-20T03:52:07;20.52;;;12.32;;
56457;SDS011;42360;42.918;12.366;2023-12-20T03:54:33;17.75;;;11.23;;
56457;SDS011;42360;42.918;12.366;2023-12-20T03:57:00;19.65;;;12.80;;
56457;SDS011;42360;42.918;12.366;2023-12-20T03:59:25;17.63;;;11.60;;
56457;SDS011;42360;42.918;12.366;2023-12-20T04:01:50;16.92;;;12.23;;
56457;SDS011;42360;42.918;12.366;2023-12-20T04:04:16;19.75;;;12.38;;
56457;SDS011;42360;42.918;12.366;2023-12-20T04:06:41;16.52;;;11.75;;
56457;SDS011;42360;42.918;12.366;2023-12-20T04:09:07;15.45;;;10.73;;
56457;SDS011;42360;42.918;12.366;2023-12-20T04:11:34;13.23;;;10.10;;
56457;SDS011;42360;42.918;12.366;2023-12-20T04:14:00;17.23;;;10.68;;
56457;SDS011;42360;42.918;12.366;2023-12-20T04:16:25;15.13;;;10.88;;
56457;SDS011;42360;42.918;12.366;2023-12-20T04:18:51;14.60;;;10.05;;
56457;SDS011;42360;42.918;12.366;2023-12-20T04:21:17;16.67;;;10.30;;
56457;SDS011;42360;42.918;12.366;2023-12-20T04:23:43;18.17;;;11.65;;
56457;SDS011;42360;42.918;12.366;2023-12-20T04:26:08;15.05;;;11.00;;
56457;SDS011;42360;42.918;12.366;2023-12-20T04:28:34;15.65;;;10.80;;
56457;SDS011;42360;42.918;12.366;2023-12-20T04:30:59;14.25;;;10.48;;
56457;SDS011;42360;42.918;12.366;2023-12-20T04:33:25;12.10;;;10.25;;
56457;SDS011;42360;42.918;12.366;2023-12-20T04:35:50;13.15;;;9.73;;
56457;SDS011;42360;42.918;12.366;2023-12-20T04:38:16;15.23;;;10.27;;
56457;SDS011;42360;42.918;12.366;2023-12-20T04:40:42;16.00;;;11.15;;
56457;SDS011;42360;42.918;12.366;2023-12-20T04:43:07;15.55;;;11.02;;
56457;SDS011;42360;42.918;12.366;2023-12-20T04:45:34;20.95;;;12.23;;
56457;SDS011;42360;42.918;12.366;2023-12-20T04:47:59;15.77;;;11.10;;
56457;SDS011;42360;42.918;12.366;2023-12-20T04:50:26;20.05;;;13.45;;
56457;SDS011;42360;42.918;12.366;2023-12-20T04:52:51;19.95;;;12.35;;
56457;SDS011;42360;42.918;12.366;2023-12-20T04:55:17;17.38;;;11.55;;
56457;SDS011;42360;42.918;12.366;2023-12-20T04:57:42;20.85;;;13.25;;
56457;SDS011;42360;42.918;12.366;2023-12-20T05:00:08;18.45;;;12.15;;
56457;SDS011;42360;42.918;12.366;2023-12-20T05:02:35;21.70;;;12.50;;
56457;SDS011;42360;42.918;12.366;2023-12-20T05:05:00;18.98;;;12.63;;
56457;SDS011;42360;42.918;12.366;2023-12-20T05:07:26;24.83;;;12.65;;
56457;SDS011;42360;42.918;12.366;2023-12-20T05:09:51;18.42;;;12.35;;
56457;SDS011;42360;42.918;12.366;2023-12-20T05:12:17;20.08;;;12.10;;
56457;SDS011;42360;42.918;12.366;2023-12-20T05:14:42;22.80;;;11.75;;
56457;SDS011;42360;42.918;12.366;2023-12-20T05:17:08;21.15;;;11.02;;
56457;SDS011;42360;42.918;12.366;2023-12-20T05:19:33;21.40;;;12.85;;
56457;SDS011;42360;42.918;12.366;2023-12-20T05:22:02;20.42;;;11.45;;
56457;SDS011;42360;42.918;12.366;2023-12-20T05:24:27;18.02;;;10.50;;
56457;SDS011;42360;42.918;12.366;2023-12-20T05:26:53;16.75;;;11.00;;
56457;SDS011;42360;42.918;12.366;2023-12-20T05:29:18;19.15;;;12.50;;
56457;SDS011;42360;42.918;12.366;2023-12-20T05:31:44;19.52;;;11.50;;
56457;SDS011;42360;42.918;12.366;2023-12-20T05:34:09;19.45;;;11.82;;
56457;SDS011;42360;42.918;12.366;2023-12-20T05:36:35;19.77;;;10.23;;
56457;SDS011;42360;42.918;12.366;2023-12-20T05:39:01;16.98;;;11.40;;
56457;SDS011;42360;42.918;12.366;2023-12-20T05:41:28;18.05;;;11.68;;
56457;SDS011;42360;42.918;12.366;2023-12-20T05:43:54;19.77;;;10.70;;
56457;SDS011;42360;42.918;12.366;2023-12-20T05:46:19;21.20;;;12.52;;
56457;SDS011;42360;42.918;12.366;2023-12-20T05:48:46;19.23;;;11.60;;
56457;SDS011;42360;42.918;12.366;2023-12-20T05:51:11;15.98;;;11.27;;
56457;SDS011;42360;42.918;12.366;2023-12-20T05:53:37;22.45;;;12.93;;
56457;SDS011;42360;42.918;12.366;2023-12-20T05:56:03;24.65;;;12.30;;
56457;SDS011;42360;42.918;12.366;2023-12-20T05:58:29;18.95;;;12.30;;
56457;SDS011;42360;42.918;12.366;2023-12-20T06:00:54;21.13;;;11.60;;
56457;SDS011;42360;42.918;12.366;2023-12-20T06:03:20;16.95;;;11.18;;
56457;SDS011;42360;42.918;12.366;2023-12-20T06:05:45;15.90;;;9.85;;
56457;SDS011;42360;42.918;12.366;2023-12-20T06:08:11;14.70;;;10.45;;
56457;SDS011;42360;42.918;12.366;2023-12-20T06:10:36;17.40;;;10.73;;
56457;SDS011;42360;42.918;12.366;2023-12-20T06:13:02;16.63;;;10.75;;
56457;SDS011;42360;42.918;12.366;2023-12-20T06:15:29;14.18;;;9.43;;
56457;SDS011;42360;42.918;12.366;2023-12-20T06:17:54;15.18;;;9.98;;
56457;SDS011;42360;42.918;12.366;2023-12-20T06:20:20;16.85;;;10.18;;
56457;SDS011;42360;42.918;12.366;2023-12-20T06:22:45;18.52;;;10.23;;
56457;SDS011;42360;42.918;12.366;2023-12-20T06:25:11;16.35;;;10.38;;
56457;SDS011;42360;42.918;12.366;2023-12-20T06:27:36;17.50;;;10.80;;
56457;SDS011;42360;42.918;12.366;2023-12-20T06:30:02;21.48;;;11.38;;
56457;SDS011;42360;42.918;12.366;2023-12-20T06:32:27;17.00;;;11.18;;
56457;SDS011;42360;42.918;12.366;2023-12-20T06:34:54;21.08;;;13.80;;
56457;SDS011;42360;42.918;12.366;2023-12-20T06:37:19;23.52;;;13.60;;
56457;SDS011;42360;42.918;12.366;2023-12-20T06:39:45;20.80;;;12.07;;
56457;SDS011;42360;42.918;12.366;2023-12-20T06:42:11;18.15;;;12.23;;
56457;SDS011;42360;42.918;12.366;2023-12-20T06:44:37;17.95;;;11.35;;
56457;SDS011;42360;42.918;12.366;2023-12-20T06:47:03;16.48;;;11.27;;
56457;SDS011;42360;42.918;12.366;2023-12-20T06:49:29;17.05;;;10.75;;
56457;SDS011;42360;42.918;12.366;2023-12-20T06:51:55;12.70;;;10.25;;
56457;SDS011;42360;42.918;12.366;2023-12-20T06:54:20;17.05;;;10.57;;
56457;SDS011;42360;42.918;12.366;2023-12-20T06:56:46;18.83;;;12.13;;
56457;SDS011;42360;42.918;12.366;2023-12-20T06:59:11;12.57;;;9.65;;
56457;SDS011;42360;42.918;12.366;2023-12-20T07:01:37;17.63;;;9.50;;
56457;SDS011;42360;42.918;12.366;2023-12-20T07:04:03;17.65;;;11.38;;
56457;SDS011;42360;42.918;12.366;2023-12-20T07:06:28;16.60;;;10.75;;
56457;SDS011;42360;42.918;12.366;2023-12-20T07:08:54;18.95;;;11.02;;
56457;SDS011;42360;42.918;12.366;2023-12-20T07:11:19;15.43;;;10.90;;
56457;SDS011;42360;42.918;12.366;2023-12-20T07:13:45;12.98;;;10.25;;
56457;SDS011;42360;42.918;12.366;2023-12-20T07:16:10;13.20;;;9.50;;
56457;SDS011;42360;42.918;12.366;2023-12-20T07:18:36;18.33;;;11.18;;
56457;SDS011;42360;42.918;12.366;2023-12-20T07:21:01;19.35;;;11.32;;
56457;SDS011;42360;42.918;12.366;2023-12-20T07:23:27;22.88;;;13.45;;
56457;SDS011;42360;42.918;12.366;2023-12-20T07:25:52;19.17;;;12.55;;
56457;SDS011;42360;42.918;12.366;2023-12-20T07:28:18;50.00;;;21.98;;
56457;SDS011;42360;42.918;12.366;2023-12-20T07:30:43;34.30;;;15.73;;
56457;SDS011;42360;42.918;12.366;2023-12-20T07:33:09;11.23;;;9.00;;
56457;SDS011;42360;42.918;12.366;2023-12-20T07:35:35;19.90;;;12.50;;
56457;SDS011;42360;42.918;12.366;2023-12-20T07:38:00;41.70;;;20.10;;
56457;SDS011;42360;42.918;12.366;2023-12-20T07:40:27;24.60;;;13.27;;
56457;SDS011;42360;42.918;12.366;2023-12-20T07:42:52;27.35;;;15.43;;
56457;SDS011;42360;42.918;12.366;2023-12-20T07:45:18;34.47;;;19.67;;
56457;SDS011;42360;42.918;12.366;2023-12-20T07:47:43;20.15;;;12.82;;
56457;SDS011;42360;42.918;12.366;2023-12-20T07:50:09;22.13;;;13.68;;
56457;SDS011;42360;42.918;12.366;2023-12-20T07:52:35;24.10;;;12.55;;
56457;SDS011;42360;42.918;12.366;2023-12-20T07:55:00;27.77;;;16.63;;
56457;SDS011;42360;42.918;12.366;2023-12-20T07:57:28;28.10;;;15.90;;
56457;SDS011;42360;42.918;12.366;2023-12-20T07:59:55;26.42;;;15.95;;
56457;SDS011;42360;42.918;12.366;2023-12-20T08:02:20;15.68;;;8.68;;
56457;SDS011;42360;42.918;12.366;2023-12-20T08:04:45;23.27;;;14.18;;
56457;SDS011;42360;42.918;12.366;2023-12-20T08:07:11;27.92;;;15.65;;
56457;SDS011;42360;42.918;12.366;2023-12-20T08:09:36;29.55;;;15.55;;
56457;SDS011;42360;42.918;12.366;2023-12-20T08:12:02;18.40;;;13.57;;
56457;SDS011;42360;42.918;12.366;2023-12-20T08:14:28;24.70;;;14.65;;
56457;SDS011;42360;42.918;12.366;2023-12-20T08:16:53;23.85;;;14.43;;
56457;SDS011;42360;42.918;12.366;2023-12-20T08:19:19;22.67;;;12.88;;
56457;SDS011;42360;42.918;12.366;2023-12-20T08:21:44;23.70;;;14.98;;
56457;SDS011;42360;42.918;12.366;2023-12-20T08:24:10;24.23;;;15.35;;
56457;SDS011;42360;42.918;12.366;2023-12-20T08:26:35;23.77;;;13.63;;
56457;SDS011;42360;42.918;12.366;2023-12-20T08:29:00;22.88;;;13.50;;
56457;SDS011;42360;42.918;12.366;2023-12-20T08:31:26;22.95;;;13.05;;
56457;SDS011;42360;42.918;12.366;2023-12-20T08:33:52;32.88;;;14.50;;
56457;SDS011;42360;42.918;12.366;2023-12-20T08:36:18;21.13;;;13.82;;
56457;SDS011;42360;42.918;12.366;2023-12-20T08:38:46;25.58;;;15.27;;
56457;SDS011;42360;42.918;12.366;2023-12-20T08:41:12;30.25;;;17.10;;
56457;SDS011;42360;42.918;12.366;2023-12-20T08:43:37;23.80;;;16.02;;
56457;SDS011;42360;42.918;12.366;2023-12-20T08:46:05;28.73;;;15.68;;
56457;SDS011;42360;42.918;12.366;2023-12-20T08:48:31;18.27;;;13.27;;
56457;SDS011;42360;42.918;12.366;2023-12-20T08:50:56;25.67;;;14.27;;
56457;SDS011;42360;42.918;12.366;2023-12-20T08:53:22;20.83;;;13.48;;
56457;SDS011;42360;42.918;12.366;2023-12-20T08:55:47;27.42;;;15.10;;
56457;SDS011;42360;42.918;12.366;2023-12-20T08:58:13;19.88;;;13.18;;
56457;SDS011;42360;42.918;12.366;2023-12-20T09:00:39;27.77;;;15.60;;
56457;SDS011;42360;42.918;12.366;2023-12-20T09:03:04;28.70;;;15.27;;
56457;SDS011;42360;42.918;12.366;2023-12-20T09:05:30;24.63;;;15.05;;
56457;SDS011;42360;42.918;12.366;2023-12-20T09:07:56;21.08;;;13.98;;
56457;SDS011;42360;42.918;12.366;2023-12-20T09:10:21;22.25;;;14.70;;
56457;SDS011;42360;42.918;12.366;2023-12-20T09:12:50;19.98;;;13.00;;
56457;SDS011;42360;42.918;12.366;2023-12-20T09:15:16;17.50;;;11.63;;
56457;SDS011;42360;42.918;12.366;2023-12-20T09:17:42;34.05;;;17.67;;
56457;SDS011;42360;42.918;12.366;2023-12-20T09:20:08;40.08;;;21.38;;
56457;SDS011;42360;42.918;12.366;2023-12-20T09:22:34;25.33;;;16.52;;
56457;SDS011;42360;42.918;12.366;2023-12-20T09:25:00;31.65;;;16.73;;
56457;SDS011;42360;42.918;12.366;2023-12-20T09:27:27;27.13;;;18.45;;
56457;SDS011;42360;42.918;12.366;2023-12-20T09:29:52;40.15;;;21.17;;
56457;SDS011;42360;42.918;12.366;2023-12-20T09:32:18;33.15;;;21.13;;
56457;SDS011;42360;42.918;12.366;2023-12-20T09:34:45;41.80;;;24.20;;
56457;SDS011;42360;42.918;12.366;2023-12-20T09:37:11;32.67;;;19.33;;
56457;SDS011;42360;42.918;12.366;2023-12-20T09:39:36;31.85;;;18.13;;
56457;SDS011;42360;42.918;12.366;2023-12-20T09:42:05;43.30;;;22.83;;
56457;SDS011;42360;42.918;12.366;2023-12-20T09:44:31;36.97;;;20.13;;
56457;SDS011;42360;42.918;12.366;2023-12-20T09:47:02;42.08;;;23.25;;
56457;SDS011;42360;42.918;12.366;2023-12-20T09:49:28;47.00;;;23.33;;
56457;SDS011;42360;42.918;12.366;2023-12-20T09:51:55;44.35;;;22.08;;
56457;SDS011;42360;42.918;12.366;2023-12-20T09:54:21;41.70;;;22.02;;
56457;SDS011;42360;42.918;12.366;2023-12-20T09:56:48;47.53;;;24.42;;
56457;SDS011;42360;42.918;12.366;2023-12-20T09:59:14;56.15;;;24.17;;
56457;SDS011;42360;42.918;12.366;2023-12-20T10:01:40;46.58;;;23.77;;
56457;SDS011;42360;42.918;12.366;2023-12-20T10:04:07;57.15;;;29.42;;
56457;SDS011;42360;42.918;12.366;2023-12-20T10:06:43;56.30;;;28.58;;
56457;SDS011;42360;42.918;12.366;2023-12-20T10:09:09;45.05;;;21.45;;
56457;SDS011;42360;42.918;12.366;2023-12-20T10:11:37;59.45;;;27.42;;
56457;SDS011;42360;42.918;12.366;2023-12-20T10:14:03;53.70;;;30.55;;
56457;SDS011;42360;42.918;12.366;2023-12-20T10:16:29;39.55;;;21.63;;
56457;SDS011;42360;42.918;12.366;2023-12-20T10:18:55;49.78;;;24.02;;
56457;SDS011;42360;42.918;12.366;2023-12-20T10:21:24;45.53;;;23.90;;
56457;SDS011;42360;42.918;12.366;2023-12-20T10:23:54;35.05;;;17.75;;
56457;SDS011;42360;42.918;12.366;2023-12-20T10:26:20;68.25;;;31.25;;
56457;SDS011;42360;42.918;12.366;2023-12-20T10:28:59;109.85;;;56.90;;
56457;SDS011;42360;42.918;12.366;2023-12-20T10:31:32;57.03;;;32.20;;
56457;SDS011;42360;42.918;12.366;2023-12-20T10:33:59;39.10;;;23.40;;
56457;SDS011;42360;42.918;12.366;2023-12-20T10:36:26;33.47;;;18.20;;
56457;SDS011;42360;42.918;12.366;2023-12-20T10:38:53;28.63;;;19.25;;
56457;SDS011;42360;42.918;12.366;2023-12-20T10:41:24;20.75;;;12.68;;
56457;SDS011;42360;42.918;12.366;2023-12-20T10:43:53;23.60;;;11.95;;
56457;SDS011;42360;42.918;12.366;2023-12-20T10:46:20;30.80;;;15.05;;
56457;SDS011;42360;42.918;12.366;2023-12-20T10:48:45;18.92;;;12.68;;
56457;SDS011;42360;42.918;12.366;2023-12-20T10:51:13;25.75;;;15.82;;
56457;SDS011;42360;42.918;12.366;2023-12-20T10:53:39;27.38;;;16.15;;
56457;SDS011;42360;42.918;12.366;2023-12-20T10:56:06;31.92;;;19.48;;
56457;SDS011;42360;42.918;12.366;2023-12-20T10:58:33;35.53;;;19.92;;
56457;SDS011;42360;42.918;12.366;2023-12-20T11:01:01;34.30;;;20.92;;
56457;SDS011;42360;42.918;12.366;2023-12-20T11:03:27;37.67;;;20.95;;
56457;SDS011;42360;42.918;12.366;2023-12-20T11:06:05;57.58;;;28.35;;
56457;SDS011;42360;42.918;12.366;2023-12-20T11:11:28;46.63;;;25.23;;
56457;SDS011;42360;42.918;12.366;2023-12-20T11:16:42;37.35;;;24.15;;
56457;SDS011;42360;42.918;12.366;2023-12-20T11:19:07;33.03;;;19.52;;
56457;SDS011;42360;42.918;12.366;2023-12-20T11:21:33;30.85;;;20.15;;
56457;SDS011;42360;42.918;12.366;2023-12-20T11:23:59;26.02;;;17.52;;
56457;SDS011;42360;42.918;12.366;2023-12-20T11:26:28;25.85;;;18.02;;
56457;SDS011;42360;42.918;12.366;2023-12-20T11:28:54;26.60;;;18.58;;
56457;SDS011;42360;42.918;12.366;2023-12-20T11:32:27;27.02;;;17.42;;
56457;SDS011;42360;42.918;12.366;2023-12-20T11:37:22;20.55;;;15.73;;
56457;SDS011;42360;42.918;12.366;2023-12-20T11:39:55;19.70;;;14.95;;
56457;SDS011;42360;42.918;12.366;2023-12-20T11:42:24;20.58;;;14.25;;
56457;SDS011;42360;42.918;12.366;2023-12-20T11:44:49;21.30;;;15.50;;
56457;SDS011;42360;42.918;12.366;2023-12-20T11:47:15;19.67;;;14.07;;
56457;SDS011;42360;42.918;12.366;2023-12-20T11:49:44;21.15;;;15.18;;
56457;SDS011;42360;42.918;12.366;2023-12-20T11:52:11;21.63;;;16.00;;
56457;SDS011;42360;42.918;12.366;2023-12-20T11:54:38;21.98;;;15.48;;
56457;SDS011;42360;42.918;12.366;2023-12-20T11:57:03;22.73;;;14.68;;
56457;SDS011;42360;42.918;12.366;2023-12-20T11:59:29;17.20;;;14.35;;
56457;SDS011;42360;42.918;12.366;2023-12-20T12:01:54;16.05;;;13.95;;
56457;SDS011;42360;42.918;12.366;2023-12-20T12:04:25;19.15;;;13.77;;
56457;SDS011;42360;42.918;12.366;2023-12-20T12:06:50;23.35;;;16.10;;
56457;SDS011;42360;42.918;12.366;2023-12-20T12:09:16;19.70;;;14.20;;
56457;SDS011;42360;42.918;12.366;2023-12-20T12:11:42;20.63;;;15.45;;
56457;SDS011;42360;42.918;12.366;2023-12-20T12:14:08;18.10;;;13.93;;
56457;SDS011;42360;42.918;12.366;2023-12-20T12:16:33;19.58;;;15.63;;
56457;SDS011;42360;42.918;12.366;2023-12-20T12:18:59;18.75;;;15.05;;
56457;SDS011;42360;42.918;12.366;2023-12-20T12:21:25;19.40;;;15.30;;
56457;SDS011;42360;42.918;12.366;2023-12-20T12:23:51;21.42;;;16.45;;
56457;SDS011;42360;42.918;12.366;2023-12-20T12:26:16;21.27;;;15.73;;
56457;SDS011;42360;42.918;12.366;2023-12-20T12:28:42;19.90;;;15.20;;
56457;SDS011;42360;42.918;12.366;2023-12-20T12:31:08;22.13;;;16.17;;
56457;SDS011;42360;42.918;12.366;2023-12-20T12:33:34;30.25;;;23.90;;
56457;SDS011;42360;42.918;12.366;2023-12-20T12:36:00;23.17;;;18.23;;
56457;SDS011;42360;42.918;12.366;2023-12-20T12:38:26;21.75;;;16.80;;
56457;SDS011;42360;42.918;12.366;2023-12-20T12:40:52;18.98;;;13.85;;
56457;SDS011;42360;42.918;12.366;2023-12-20T12:43:19;22.55;;;16.20;;
56457;SDS011;42360;42.918;12.366;2023-12-20T12:45:44;21.88;;;15.20;;
56457;SDS011;42360;42.918;12.366;2023-12-20T12:48:10;23.92;;;17.85;;
56457;SDS011;42360;42.918;12.366;2023-12-20T12:50:35;19.50;;;14.10;;
56457;SDS011;42360;42.918;12.366;2023-12-20T12:53:01;21.77;;;15.00;;
56457;SDS011;42360;42.918;12.366;2023-12-20T12:55:27;21.65;;;16.33;;
56457;SDS011;42360;42.918;12.366;2023-12-20T12:57:53;34.63;;;23.77;;
56457;SDS011;42360;42.918;12.366;2023-12-20T13:00:19;36.03;;;24.08;;
56457;SDS011;42360;42.918;12.366;2023-12-20T13:02:44;29.40;;;18.38;;
56457;SDS011;42360;42.918;12.366;2023-12-20T13:05:10;20.95;;;16.73;;
56457;SDS011;42360;42.918;12.366;2023-12-20T13:07:35;26.10;;;17.50;;
56457;SDS011;42360;42.918;12.366;2023-12-20T13:10:02;23.77;;;17.80;;
56457;SDS011;42360;42.918;12.366;2023-12-20T13:12:28;22.20;;;17.13;;
56457;SDS011;42360;42.918;12.366;2023-12-20T13:14:54;20.77;;;16.33;;
56457;SDS011;42360;42.918;12.366;2023-12-20T13:17:20;22.23;;;17.17;;
56457;SDS011;42360;42.918;12.366;2023-12-20T13:19:45;25.40;;;17.85;;
56457;SDS011;42360;42.918;12.366;2023-12-20T13:22:11;23.02;;;16.58;;
56457;SDS011;42360;42.918;12.366;2023-12-20T13:24:36;21.27;;;17.23;;
56457;SDS011;42360;42.918;12.366;2023-12-20T13:27:02;27.88;;;20.25;;
56457;SDS011;42360;42.918;12.366;2023-12-20T13:29:27;25.55;;;19.00;;
56457;SDS011;42360;42.918;12.366;2023-12-20T13:31:53;22.40;;;17.60;;
56457;SDS011;42360;42.918;12.366;2023-12-20T13:34:18;19.27;;;16.13;;
56457;SDS011;42360;42.918;12.366;2023-12-20T13:36:44;24.08;;;16.65;;
56457;SDS011;42360;42.918;12.366;2023-12-20T13:39:15;23.92;;;16.70;;
56457;SDS011;42360;42.918;12.366;2023-12-20T13:41:40;19.65;;;15.65;;
56457;SDS011;42360;42.918;12.366;2023-12-20T13:44:06;24.15;;;17.92;;
56457;SDS011;42360;42.918;12.366;2023-12-20T13:46:31;23.20;;;18.50;;
56457;SDS011;42360;42.918;12.366;2023-12-20T13:48:57;23.25;;;19.25;;
56457;SDS011;42360;42.918;12.366;2023-12-20T13:51:22;23.25;;;17.65;;
56457;SDS011;42360;42.918;12.366;2023-12-20T13:53:48;21.90;;;16.70;;
56457;SDS011;42360;42.918;12.366;2023-12-20T13:56:14;22.33;;;16.95;;
56457;SDS011;42360;42.918;12.366;2023-12-20T13:58:40;19.58;;;16.50;;
56457;SDS011;42360;42.918;12.366;2023-12-20T14:01:06;22.48;;;16.92;;
56457;SDS011;42360;42.918;12.366;2023-12-20T14:03:33;22.55;;;16.20;;
56457;SDS011;42360;42.918;12.366;2023-12-20T14:05:59;26.13;;;18.95;;
56457;SDS011;42360;42.918;12.366;2023-12-20T14:08:25;26.27;;;18.65;;
56457;SDS011;42360;42.918;12.366;2023-12-20T14:10:52;24.83;;;18.83;;
56457;SDS011;42360;42.918;12.366;2023-12-20T14:13:17;28.90;;;20.10;;